Agonistis — SVBC3 — position and weather

sailwx.info

Track history (hours):
 
Tides and Currents Weather Stations Pressure Air Temp Water Temp Dewpoint Dewpoint Depression Visibility Wind Speed Wind Dir Waves Ship Positions

Agonistis

Last reported at 2017-Sep-20 11:50 UTC. Time now 2017-Sep-26 11:23 UTC.
Position S 29°25' E 031°49'.

Length 196 m; draft 10.7 m.

Type: Cargo ship. MMSI: 241048000.

Date/timePositionNaut miles runAvg speedWind from/ knotsBaromVisibWave heightAir tempDewpointWater temp
2017-Sep-20 11:50S 29°25' E 031°49'411.6
2017-Sep-20 11:30S 29°27' E 031°46'611.6
2017-Sep-20 11:00S 29°31' E 031°41'611.5
2017-Sep-20 10:30S 29°35' E 031°36'612.2
2017-Sep-20 10:00S 29°38' E 031°30'612.8
2017-Sep-20 09:30S 29°42' E 031°24'612.9
2017-Sep-20 09:00S 29°46' E 031°19'612.5
2017-Sep-20 08:30S 29°50' E 031°13'4 7.3
2017-Sep-20 08:00S 29°51' E 031°09'1 2.0
2017-Sep-20 07:30S 29°51' E 031°10'2 3.0
2017-Sep-20 07:00S 29°52' E 031°12'1 1.9
2017-Sep-20 06:30S 29°52' E 031°13'1 1.5
2017-Sep-20 06:00S 29°52' E 031°12'2 4.2
2017-Sep-20 05:30S 29°54' E 031°14'2 3.2
2017-Sep-20 05:00S 29°55' E 031°15'1 1.5
2017-Sep-20 04:30S 29°55' E 031°14'2 4.5
2017-Sep-20 04:00S 29°57' E 031°12'2 4.6
2017-Sep-20 03:30S 29°57' E 031°09'3 6.8
2017-Sep-20 03:00S 30°01' E 031°08'5 9.7
2017-Sep-20 02:30S 30°05' E 031°07'5 9.4
2017-Sep-20 02:00S 30°10' E 031°06'5 8.9
2017-Sep-20 01:27S 30°15' E 031°04'4 8.2
2017-Sep-20 01:00S 30°18' E 031°03'4 7.7
2017-Sep-20 00:30S 30°22' E 031°02'4 7.4
2017-Sep-20 00:00S 30°25' E 031°00'4 7.3
2017-Sep-19 23:30S 30°29' E 030°59'4 7.3
2017-Sep-19 23:00S 30°32' E 030°58'4 7.4
2017-Sep-19 22:30S 30°36' E 030°57'  
Track history (hours):
 
Tides and Currents Weather Stations Pressure Air Temp Water Temp Dewpoint Dewpoint Depression Visibility Wind Speed Wind Dir Waves Ship Positions

Agonistis

Last reported at 2017-Sep-20 11:50 UTC. Time now 2017-Sep-26 11:23 UTC.
Position S 29°25' E 031°49'.

Length 196 m; draft 10.7 m.

Type: Cargo ship. MMSI: 241048000.

Date/timePositionNaut miles runAvg speedWind from/ knotsBaromVisibWave heightAir tempDewpointWater temp
2017-Sep-20 11:50S 29°25' E 031°49'411.6
2017-Sep-20 11:30S 29°27' E 031°46'611.6
2017-Sep-20 11:00S 29°31' E 031°41'611.5
2017-Sep-20 10:30S 29°35' E 031°36'612.2
2017-Sep-20 10:00S 29°38' E 031°30'612.8
2017-Sep-20 09:30S 29°42' E 031°24'612.9
2017-Sep-20 09:00S 29°46' E 031°19'612.5
2017-Sep-20 08:30S 29°50' E 031°13'4 7.3
2017-Sep-20 08:00S 29°51' E 031°09'1 2.0
2017-Sep-20 07:30S 29°51' E 031°10'2 3.0
2017-Sep-20 07:00S 29°52' E 031°12'1 1.9
2017-Sep-20 06:30S 29°52' E 031°13'1 1.5
2017-Sep-20 06:00S 29°52' E 031°12'2 4.2
2017-Sep-20 05:30S 29°54' E 031°14'2 3.2
2017-Sep-20 05:00S 29°55' E 031°15'1 1.5
2017-Sep-20 04:30S 29°55' E 031°14'2 4.5
2017-Sep-20 04:00S 29°57' E 031°12'2 4.6
2017-Sep-20 03:30S 29°57' E 031°09'3 6.8
2017-Sep-20 03:00S 30°01' E 031°08'5 9.7
2017-Sep-20 02:30S 30°05' E 031°07'5 9.4
2017-Sep-20 02:00S 30°10' E 031°06'5 8.9
2017-Sep-20 01:27S 30°15' E 031°04'4 8.2
2017-Sep-20 01:00S 30°18' E 031°03'4 7.7
2017-Sep-20 00:30S 30°22' E 031°02'4 7.4
2017-Sep-20 00:00S 30°25' E 031°00'4 7.3
2017-Sep-19 23:30S 30°29' E 030°59'4 7.3
2017-Sep-19 23:00S 30°32' E 030°58'4 7.4
2017-Sep-19 22:30S 30°36' E 030°57'  

Dump ship's entire track history